createdAt,value
2018-11-23T00:00:24.713Z,43.77
2018-11-23T00:02:54.043Z,46.90
2018-11-23T00:05:22.970Z,38.33
2018-11-23T00:07:51.984Z,37.83
2018-11-23T00:10:21.911Z,42.83
2018-11-23T00:12:50.485Z,44.33
2018-11-23T00:15:20.385Z,41.10
2018-11-23T00:17:49.002Z,37.47
2018-11-23T00:20:18.989Z,48.17
2018-11-23T00:22:47.776Z,42.83
2018-11-23T00:25:17.659Z,43.87
2018-11-23T00:27:46.595Z,38.57
2018-11-23T00:30:20.382Z,42.90
2018-11-23T00:32:49.620Z,36.33
2018-11-23T00:35:20.105Z,37.93
2018-11-23T00:37:49.543Z,44.17
2018-11-23T00:40:21.508Z,41.50
2018-11-23T00:42:50.622Z,43.87
2018-11-23T00:45:19.208Z,34.97
2018-11-23T00:47:48.759Z,36.40
2018-11-23T00:50:18.833Z,38.20
2018-11-23T00:52:47.977Z,43.70
2018-11-23T00:55:17.925Z,38.53
2018-11-23T00:57:46.514Z,37.70
2018-11-23T01:00:17.178Z,40.47
2018-11-23T01:02:45.952Z,38.77
2018-11-23T01:05:16.237Z,46.87
2018-11-23T01:07:45.536Z,45.73
2018-11-23T01:10:16.156Z,47.83
2018-11-23T01:12:45.984Z,36.57
2018-11-23T01:15:14.809Z,43.80
2018-11-23T01:17:43.508Z,42.73
2018-11-23T01:20:15.621Z,43.47
2018-11-23T01:22:44.871Z,39.63
2018-11-23T01:25:15.067Z,42.80
2018-11-23T01:27:44.539Z,41.60
2018-11-23T01:30:16.017Z,38.80
2018-11-23T01:32:45.065Z,40.93
2018-11-23T01:35:14.563Z,42.30
2018-11-23T01:37:43.227Z,45.47
2018-11-23T01:40:14.775Z,45.73
2018-11-23T01:42:43.391Z,35.50
2018-11-23T01:45:12.815Z,43.23
2018-11-23T01:47:41.476Z,44.23
2018-11-23T01:50:12.220Z,47.17
2018-11-23T01:52:40.788Z,54.10
2018-11-23T01:55:10.743Z,57.03
2018-11-23T01:57:40.520Z,52.20
2018-11-23T02:00:11.533Z,61.80
2018-11-23T02:02:40.111Z,49.43
2018-11-23T02:05:09.380Z,44.80
2018-11-23T02:07:38.227Z,41.40
2018-11-23T02:10:07.664Z,51.60
2018-11-23T02:12:36.511Z,46.93
2018-11-23T02:15:06.277Z,43.20
2018-11-23T02:17:34.805Z,50.63
2018-11-23T02:20:03.524Z,52.37
2018-11-23T02:22:32.408Z,44.23
2018-11-23T02:25:00.996Z,53.23
2018-11-23T02:27:29.493Z,53.53
2018-11-23T02:29:58.036Z,43.53
2018-11-23T02:32:26.740Z,57.07
2018-11-23T02:34:55.338Z,52.53
2018-11-23T02:37:23.922Z,38.80
2018-11-23T02:39:52.552Z,48.10
2018-11-23T02:42:21.185Z,50.40
2018-11-23T02:44:49.718Z,51.17
2018-11-23T02:47:18.321Z,48.17
2018-11-23T02:49:46.956Z,54.87
2018-11-23T02:52:15.662Z,53.63
2018-11-23T02:54:44.219Z,45.93
2018-11-23T02:57:12.826Z,44.47
2018-11-23T02:59:41.432Z,47.33
2018-11-23T03:02:10.027Z,50.27
2018-11-23T03:04:38.538Z,52.30
2018-11-23T03:07:07.265Z,47.63
2018-11-23T03:09:35.860Z,41.10
2018-11-23T03:12:04.588Z,52.83
2018-11-23T03:14:33.131Z,50.03
2018-11-23T03:17:01.693Z,56.97
2018-11-23T03:19:30.247Z,56.83
2018-11-23T03:21:58.792Z,52.20
2018-11-23T03:24:27.453Z,46.07
2018-11-23T03:26:56.046Z,61.17
2018-11-23T03:29:24.920Z,46.30
2018-11-23T03:31:53.452Z,48.77
2018-11-23T03:34:21.983Z,53.60
2018-11-23T03:36:50.558Z,55.97
2018-11-23T03:39:19.068Z,46.67
2018-11-23T03:41:47.727Z,50.73
2018-11-23T03:44:16.263Z,54.97
2018-11-23T03:46:44.812Z,52.37
2018-11-23T03:49:13.373Z,57.00
2018-11-23T03:51:42.082Z,53.47
2018-11-23T03:54:10.601Z,48.63
2018-11-23T03:56:39.308Z,53.07
2018-11-23T03:59:07.952Z,55.43
2018-11-23T04:01:36.598Z,66.63
2018-11-23T04:04:05.793Z,62.03
2018-11-23T04:06:34.487Z,58.33
2018-11-23T04:09:03.205Z,52.40
2018-11-23T04:11:32.060Z,54.97
2018-11-23T04:14:00.595Z,58.03
2018-11-23T04:16:29.200Z,55.93
2018-11-23T04:18:57.727Z,55.13
2018-11-23T04:21:26.349Z,55.83
2018-11-23T04:23:55.503Z,53.53
2018-11-23T04:26:24.778Z,54.03
2018-11-23T04:28:52.754Z,56.17
2018-11-23T04:31:21.283Z,60.60
2018-11-23T04:33:49.833Z,51.10
2018-11-23T04:36:18.526Z,47.30
2018-11-23T04:38:47.036Z,54.37
2018-11-23T04:41:15.789Z,56.93
2018-11-23T04:43:44.425Z,60.43
2018-11-23T04:46:12.930Z,46.10
2018-11-23T04:48:41.613Z,60.77
2018-11-23T04:51:10.345Z,71.03
2018-11-23T04:53:39.010Z,57.03
2018-11-23T04:56:07.791Z,59.20
2018-11-23T04:58:36.604Z,53.50
2018-11-23T05:01:05.288Z,57.63
2018-11-23T05:03:34.151Z,61.43
2018-11-23T05:06:02.725Z,61.93
2018-11-23T05:08:31.312Z,49.27
2018-11-23T05:11:00.232Z,65.60
2018-11-23T05:13:28.812Z,67.43
2018-11-23T05:15:57.447Z,59.77
2018-11-23T05:18:26.079Z,58.63
2018-11-23T05:20:55.006Z,60.60
2018-11-23T05:23:23.616Z,54.50
2018-11-23T05:25:52.546Z,64.20
2018-11-23T05:28:21.279Z,54.23
2018-11-23T05:30:49.780Z,59.87
2018-11-23T05:33:18.340Z,62.10
2018-11-23T05:35:47.002Z,62.70
2018-11-23T05:38:15.775Z,61.67
2018-11-23T05:40:44.399Z,50.77
2018-11-23T05:43:12.983Z,66.83
2018-11-23T05:45:41.809Z,59.57
2018-11-23T05:48:10.346Z,58.77
2018-11-23T05:50:39.123Z,64.27
2018-11-23T05:53:07.871Z,65.20
2018-11-23T05:55:36.648Z,64.50
2018-11-23T05:58:06.206Z,66.70
2018-11-23T06:00:34.867Z,64.97
2018-11-23T06:03:04.005Z,50.20
2018-11-23T06:05:32.634Z,63.77
2018-11-23T06:08:01.218Z,62.63
2018-11-23T06:10:29.820Z,59.80
2018-11-23T06:12:58.388Z,63.50
2018-11-23T06:15:26.973Z,64.53
2018-11-23T06:17:55.589Z,72.87
2018-11-23T06:20:25.748Z,65.60
2018-11-23T06:22:55.392Z,67.90
2018-11-23T06:25:28.211Z,59.53
2018-11-23T06:27:56.921Z,60.77
2018-11-23T06:30:25.676Z,74.30
2018-11-23T06:33:05.542Z,74.40
2018-11-23T06:35:34.151Z,65.73
2018-11-23T06:38:02.855Z,61.70
2018-11-23T06:40:31.592Z,68.93
2018-11-23T06:43:00.470Z,75.40
2018-11-23T06:45:30.015Z,62.30
2018-11-23T06:47:58.753Z,65.77
2018-11-23T06:50:27.338Z,65.80
2018-11-23T06:52:56.088Z,61.47
2018-11-23T06:55:24.894Z,71.47
2018-11-23T06:57:53.793Z,63.67
2018-11-23T07:00:22.416Z,66.00
2018-11-23T07:02:51.170Z,75.60
2018-11-23T07:05:19.758Z,76.60
2018-11-23T07:07:48.432Z,72.77
2018-11-23T07:10:17.087Z,65.00
2018-11-23T07:12:45.955Z,61.77
2018-11-23T07:15:14.525Z,70.13
2018-11-23T07:17:43.246Z,69.10
2018-11-23T07:20:14.194Z,70.67
2018-11-23T07:22:43.278Z,67.80
2018-11-23T07:25:13.042Z,67.03
2018-11-23T07:27:42.684Z,77.37
2018-11-23T07:30:19.206Z,62.07
2018-11-23T07:32:47.991Z,65.60
2018-11-23T07:35:16.971Z,67.30
2018-11-23T07:37:45.612Z,62.03
2018-11-23T07:40:27.580Z,73.57
2018-11-23T07:42:56.651Z,58.63
2018-11-23T07:45:25.405Z,68.70
2018-11-23T07:47:54.129Z,61.17
2018-11-23T07:50:22.715Z,72.00
2018-11-23T07:52:51.360Z,54.30
2018-11-23T07:55:19.911Z,64.80
2018-11-23T07:57:48.512Z,73.00
2018-11-23T08:00:18.841Z,64.17
2018-11-23T08:02:48.120Z,68.07
2018-11-23T08:05:17.745Z,63.70
2018-11-23T08:07:46.807Z,81.83
2018-11-23T08:10:15.594Z,68.83
2018-11-23T08:12:46.864Z,63.80
2018-11-23T08:15:19.107Z,67.57
2018-11-23T08:17:47.951Z,68.30
2018-11-23T08:20:18.232Z,60.20
2018-11-23T08:22:47.671Z,64.60
2018-11-23T08:25:18.464Z,67.73
2018-11-23T08:27:48.281Z,71.60
2018-11-23T08:30:19.564Z,76.50
2018-11-23T08:32:49.192Z,68.97
2018-11-23T08:35:17.972Z,52.13
2018-11-23T08:37:47.248Z,69.60
2018-11-23T08:40:18.731Z,69.97
2018-11-23T08:42:48.608Z,65.50
2018-11-23T08:45:19.924Z,63.97
2018-11-23T08:47:48.843Z,62.50
2018-11-23T08:50:30.100Z,62.77
2018-11-23T08:52:59.345Z,58.20
2018-11-23T08:55:28.595Z,65.93
2018-11-23T08:57:57.513Z,61.03
2018-11-23T09:00:27.790Z,59.97
2018-11-23T09:02:58.507Z,64.73
2018-11-23T09:05:27.345Z,65.53
2018-11-23T09:07:57.015Z,67.50
2018-11-23T09:10:28.412Z,63.03
2018-11-23T09:13:02.757Z,71.63
2018-11-23T09:15:31.671Z,64.43
2018-11-23T09:18:00.797Z,58.40
2018-11-23T09:20:29.964Z,60.27
2018-11-23T09:22:58.770Z,59.00
2018-11-23T09:25:28.052Z,67.63
2018-11-23T09:27:57.108Z,62.90
2018-11-23T09:30:26.907Z,62.43
2018-11-23T09:32:56.477Z,63.90
2018-11-23T09:35:25.553Z,62.47
2018-11-23T09:37:54.228Z,57.47
2018-11-23T09:40:24.240Z,73.97
2018-11-23T09:42:53.536Z,60.47
2018-11-23T09:45:23.631Z,59.50
2018-11-23T09:47:54.038Z,53.00
2018-11-23T09:50:24.041Z,63.30
2018-11-23T09:52:54.113Z,57.20
2018-11-23T09:55:24.076Z,52.90
2018-11-23T09:57:52.557Z,58.63
2018-11-23T10:00:22.672Z,54.80
2018-11-23T10:02:52.581Z,54.67
2018-11-23T10:05:21.748Z,51.37
2018-11-23T10:07:52.899Z,66.33
2018-11-23T10:10:22.509Z,52.50
2018-11-23T10:12:51.490Z,52.83
2018-11-23T10:15:20.827Z,59.20
2018-11-23T10:17:49.611Z,50.37
2018-11-23T10:20:20.658Z,53.87
2018-11-23T10:22:49.727Z,54.13
2018-11-23T10:25:19.799Z,51.33
2018-11-23T10:27:48.817Z,53.63
2018-11-23T10:30:21.109Z,56.67
2018-11-23T10:32:50.861Z,60.53
2018-11-23T10:35:19.703Z,44.37
2018-11-23T10:37:49.718Z,56.03
2018-11-23T10:40:19.993Z,52.93
2018-11-23T10:42:48.606Z,55.27
2018-11-23T10:45:19.463Z,48.43
2018-11-23T10:47:48.687Z,59.43
2018-11-23T10:50:18.746Z,56.13
2018-11-23T10:52:47.672Z,53.63
2018-11-23T10:55:18.525Z,56.23
2018-11-23T10:57:47.551Z,52.97
2018-11-23T11:00:22.541Z,44.07
2018-11-23T11:02:57.486Z,59.63
2018-11-23T11:06:05.167Z,48.20
2018-11-23T11:08:33.996Z,47.13
2018-11-23T11:11:02.842Z,57.00
2018-11-23T11:13:31.833Z,52.40
2018-11-23T11:16:00.523Z,44.57
2018-11-23T11:18:29.277Z,65.30
2018-11-23T11:20:57.903Z,40.33
2018-11-23T11:23:26.723Z,51.53
2018-11-23T11:25:55.442Z,50.47
2018-11-23T11:28:24.032Z,45.50
2018-11-23T11:30:52.893Z,44.47
2018-11-23T11:33:21.523Z,45.47
2018-11-23T11:35:50.045Z,40.60
2018-11-23T11:38:18.823Z,47.93
2018-11-23T11:40:47.404Z,46.50
2018-11-23T11:43:16.290Z,49.10
2018-11-23T11:45:44.912Z,36.27
2018-11-23T11:48:13.657Z,42.43
2018-11-23T11:50:42.381Z,50.70
2018-11-23T11:53:11.090Z,40.90
2018-11-23T11:55:39.670Z,46.13
2018-11-23T11:58:08.823Z,42.73
2018-11-23T12:00:37.454Z,42.07
2018-11-23T12:03:06.828Z,44.03
2018-11-23T12:05:35.610Z,38.30
2018-11-23T12:08:04.314Z,36.87
2018-11-23T12:10:32.877Z,34.50
2018-11-23T12:13:01.494Z,32.03
2018-11-23T12:15:30.021Z,30.63
2018-11-23T12:17:58.624Z,46.70
2018-11-23T12:20:27.312Z,49.83
2018-11-23T12:22:55.922Z,42.40
2018-11-23T12:25:25.016Z,37.50
2018-11-23T12:27:53.724Z,35.50
2018-11-23T12:30:22.871Z,33.73
2018-11-23T12:32:52.662Z,33.43
2018-11-23T12:35:22.152Z,28.73
2018-11-23T12:37:50.840Z,38.03
2018-11-23T12:40:20.335Z,30.07
2018-11-23T12:42:49.492Z,33.90
2018-11-23T12:45:20.391Z,33.90
2018-11-23T12:47:49.056Z,37.43
2018-11-23T12:50:19.508Z,33.30
2018-11-23T12:52:48.314Z,33.57
2018-11-23T12:55:17.786Z,41.20
2018-11-23T12:57:46.569Z,43.20
2018-11-23T13:00:31.299Z,33.20
2018-11-23T13:03:04.156Z,31.00
2018-11-23T13:05:33.831Z,33.00
2018-11-23T13:08:03.934Z,26.03
2018-11-23T13:10:32.971Z,28.83
2018-11-23T13:13:02.195Z,30.13
2018-11-23T13:15:30.921Z,33.90
2018-11-23T13:18:00.267Z,32.33
2018-11-23T13:20:29.076Z,30.87
2018-11-23T13:22:57.931Z,40.77
2018-11-23T13:25:28.217Z,30.50
2018-11-23T13:27:57.448Z,30.40
2018-11-23T13:30:27.925Z,28.17
2018-11-23T13:32:56.886Z,30.90
2018-11-23T13:35:25.579Z,28.10
2018-11-23T13:37:54.432Z,37.10
2018-11-23T13:40:24.506Z,31.97
2018-11-23T13:42:54.481Z,30.50
2018-11-23T13:45:24.548Z,38.00
2018-11-23T13:47:53.540Z,30.33
2018-11-23T13:50:23.340Z,24.87
2018-11-23T13:52:53.660Z,30.47
2018-11-23T13:55:22.701Z,34.47
2018-11-23T13:57:51.997Z,36.00
2018-11-23T14:00:22.190Z,31.80
2018-11-23T14:02:51.088Z,31.40
2018-11-23T14:05:22.399Z,35.30
2018-11-23T14:07:52.336Z,27.60
2018-11-23T14:10:22.585Z,34.90
2018-11-23T14:12:51.552Z,40.67
2018-11-23T14:15:21.593Z,33.50
2018-11-23T14:17:51.281Z,26.77
2018-11-23T14:20:20.780Z,27.87
2018-11-23T14:22:49.873Z,36.30
2018-11-23T14:25:19.995Z,28.40
2018-11-23T14:27:49.449Z,39.67
2018-11-23T14:30:20.336Z,33.17
2018-11-23T14:32:49.315Z,28.60
2018-11-23T14:35:19.469Z,29.80
2018-11-23T14:37:49.608Z,25.93
2018-11-23T14:40:18.512Z,28.30
2018-11-23T14:42:48.069Z,34.93
2018-11-23T14:45:20.211Z,33.67
2018-11-23T14:47:49.945Z,26.97
2018-11-23T14:50:21.686Z,29.87
2018-11-23T14:52:51.481Z,25.53
2018-11-23T14:55:20.649Z,23.80
2018-11-23T14:57:49.620Z,32.83
2018-11-23T15:00:21.921Z,29.10
2018-11-23T15:02:52.142Z,28.13
2018-11-23T15:05:21.041Z,20.43
2018-11-23T15:07:50.232Z,27.53
2018-11-23T15:10:20.367Z,29.13
2018-11-23T15:12:50.340Z,31.03
2018-11-23T15:15:20.957Z,25.13
2018-11-23T15:17:50.827Z,18.00
2018-11-23T15:20:21.582Z,22.83
2018-11-23T15:22:53.621Z,22.73
2018-11-23T15:25:22.723Z,26.00
2018-11-23T15:27:51.553Z,22.30
2018-11-23T15:30:36.570Z,27.23
2018-11-23T15:33:06.017Z,29.13
2018-11-23T15:35:35.956Z,24.70
2018-11-23T15:38:09.901Z,23.77
2018-11-23T15:40:34.017Z,26.03
2018-11-23T15:43:04.539Z,25.97
2018-11-23T15:45:34.082Z,31.10
2018-11-23T15:48:03.166Z,29.60
2018-11-23T15:50:34.460Z,36.30
2018-11-23T15:53:03.491Z,45.13
2018-11-23T15:55:33.568Z,33.30
2018-11-23T15:58:03.944Z,32.73
2018-11-23T16:00:37.194Z,37.30
2018-11-23T16:03:07.418Z,34.83
2018-11-23T16:05:36.572Z,31.37
2018-11-23T16:08:06.969Z,44.67
2018-11-23T16:10:36.755Z,33.17
2018-11-23T16:13:11.478Z,34.10
2018-11-23T16:15:36.131Z,32.03
2018-11-23T16:18:05.550Z,31.97
2018-11-23T16:20:36.880Z,35.47
2018-11-23T16:23:07.565Z,34.60
2018-11-23T16:25:36.660Z,29.97
2018-11-23T16:28:06.729Z,31.13
2018-11-23T16:30:36.937Z,34.17
2018-11-23T16:33:07.077Z,29.57
2018-11-23T16:35:37.298Z,24.60
2018-11-23T16:38:08.493Z,35.63
2018-11-23T16:40:39.192Z,43.77
2018-11-23T16:43:09.354Z,22.03
2018-11-23T16:45:39.012Z,59.93
2018-11-23T16:48:08.912Z,39.73
2018-11-23T16:50:37.816Z,31.13
2018-11-23T16:53:07.053Z,38.83
2018-11-23T16:55:36.069Z,32.20
2018-11-23T16:58:06.682Z,32.30
2018-11-23T17:00:38.185Z,30.53
2018-11-23T17:03:11.812Z,26.17
2018-11-23T17:05:43.022Z,27.97
2018-11-23T17:08:11.873Z,24.63
2018-11-23T17:10:41.190Z,31.20
2018-11-23T17:13:10.259Z,23.00
2018-11-23T17:15:39.136Z,21.80
2018-11-23T17:18:08.429Z,18.80
2018-11-23T17:20:38.382Z,23.10
2018-11-23T17:23:08.753Z,25.17
2018-11-23T17:25:37.353Z,25.70
2018-11-23T17:28:07.613Z,42.30
2018-11-23T17:30:37.197Z,23.73
2018-11-23T17:33:06.428Z,36.53
2018-11-23T17:35:35.827Z,31.00
2018-11-23T17:38:05.538Z,45.80
2018-11-23T17:40:36.368Z,34.13
2018-11-23T17:43:05.863Z,44.73
2018-11-23T17:45:34.977Z,31.40
2018-11-23T17:48:03.906Z,61.43
2018-11-23T17:50:34.207Z,42.83
2018-11-23T17:53:03.166Z,35.30
2018-11-23T17:55:32.166Z,38.40
2018-11-23T17:58:01.039Z,39.17
2018-11-23T18:00:38.920Z,32.40
2018-11-23T18:03:02.129Z,33.53
2018-11-23T18:05:31.993Z,30.53
2018-11-23T18:08:01.643Z,63.40
2018-11-23T18:10:32.290Z,85.30
2018-11-23T18:13:01.497Z,61.57
2018-11-23T18:15:31.860Z,44.63
2018-11-23T18:18:01.700Z,44.10
2018-11-23T18:20:31.398Z,34.37
2018-11-23T18:23:01.158Z,38.73
2018-11-23T18:25:31.545Z,34.73
2018-11-23T18:28:00.336Z,35.00
2018-11-23T18:30:34.387Z,35.20
2018-11-23T18:33:04.703Z,43.03
2018-11-23T18:35:34.154Z,37.03
2018-11-23T18:38:03.552Z,39.63
2018-11-23T18:40:37.263Z,37.33
2018-11-23T18:43:04.536Z,38.70
2018-11-23T18:45:33.709Z,50.43
2018-11-23T18:48:02.483Z,37.57
2018-11-23T18:50:31.440Z,38.00
2018-11-23T18:53:00.410Z,39.40
2018-11-23T18:55:29.540Z,94.43
2018-11-23T18:57:58.415Z,49.87
2018-11-23T19:00:27.280Z,92.13
2018-11-23T19:02:56.174Z,77.17
2018-11-23T19:05:26.563Z,79.97
2018-11-23T19:07:55.333Z,86.63
2018-11-23T19:10:24.242Z,59.87
2018-11-23T19:12:53.108Z,54.80
2018-11-23T19:15:25.494Z,43.97
2018-11-23T19:17:51.443Z,42.37
2018-11-23T19:20:22.312Z,46.13
2018-11-23T19:22:52.325Z,50.87
2018-11-23T19:25:21.443Z,46.40
2018-11-23T19:27:50.638Z,50.00
2018-11-23T19:30:27.739Z,45.13
2018-11-23T19:32:49.704Z,40.73
2018-11-23T19:35:18.705Z,34.87
2018-11-23T19:37:47.668Z,39.47
2018-11-23T19:40:17.174Z,25.60
2018-11-23T19:42:46.204Z,29.90
2018-11-23T19:45:16.146Z,38.33
2018-11-23T19:47:45.129Z,32.70
2018-11-23T19:50:15.393Z,36.87
2018-11-23T19:52:44.275Z,36.33
2018-11-23T19:55:13.896Z,43.23
2018-11-23T19:57:42.807Z,38.00
2018-11-23T20:00:21.254Z,38.53
2018-11-23T20:02:51.002Z,43.73
2018-11-23T20:05:20.148Z,42.13
2018-11-23T20:07:50.468Z,45.77
2018-11-23T20:10:20.286Z,60.70
2018-11-23T20:12:50.387Z,118.63
2018-11-23T20:15:20.111Z,142.07
2018-11-23T20:17:49.191Z,109.53
2018-11-23T20:20:18.528Z,81.07
2018-11-23T20:22:48.268Z,94.23
2018-11-23T20:25:19.254Z,63.87
2018-11-23T20:27:49.169Z,61.73
2018-11-23T20:30:19.041Z,55.27
2018-11-23T20:32:48.025Z,59.37
2018-11-23T20:35:18.250Z,58.00
2018-11-23T20:37:47.091Z,50.00
2018-11-23T20:40:17.390Z,45.77
2018-11-23T20:42:46.152Z,51.63
2018-11-23T20:45:14.978Z,53.87
2018-11-23T20:47:43.825Z,50.47
2018-11-23T20:50:13.623Z,40.33
2018-11-23T20:52:42.541Z,44.77
2018-11-23T20:55:14.498Z,44.37
2018-11-23T20:57:43.637Z,38.47
2018-11-23T21:00:14.143Z,40.30
2018-11-23T21:02:43.234Z,42.57
2018-11-23T21:05:13.187Z,52.13
2018-11-23T21:07:42.249Z,40.20
2018-11-23T21:10:20.497Z,40.07
2018-11-23T21:12:44.516Z,43.77
2018-11-23T21:15:32.808Z,44.03
2018-11-23T21:18:02.775Z,53.13
2018-11-23T21:20:32.028Z,42.57
2018-11-23T21:23:01.587Z,48.33
2018-11-23T21:25:30.968Z,43.60
2018-11-23T21:28:00.176Z,45.80
2018-11-23T21:30:29.129Z,34.10
2018-11-23T21:32:58.033Z,37.63
2018-11-23T21:35:26.922Z,46.73
2018-11-23T21:37:55.740Z,36.23
2018-11-23T21:40:24.788Z,43.37
2018-11-23T21:42:53.940Z,39.77
2018-11-23T21:45:23.003Z,39.77
2018-11-23T21:47:51.860Z,42.83
2018-11-23T21:50:25.439Z,40.73
2018-11-23T21:52:50.520Z,38.03
2018-11-23T21:55:26.265Z,42.90
2018-11-23T21:57:56.053Z,41.27
2018-11-23T22:00:25.106Z,47.90
2018-11-23T22:02:53.924Z,46.83
2018-11-23T22:05:22.627Z,48.87
2018-11-23T22:07:51.631Z,46.53
2018-11-23T22:10:20.897Z,41.67
2018-11-23T22:12:49.737Z,58.80
2018-11-23T22:15:23.665Z,50.53
2018-11-23T22:17:53.582Z,34.70
2018-11-23T22:20:23.070Z,41.20
2018-11-23T22:22:52.022Z,37.00
2018-11-23T22:25:21.793Z,35.30
2018-11-23T22:27:50.596Z,35.77
2018-11-23T22:30:24.812Z,30.80
2018-11-23T22:32:53.656Z,24.77
2018-11-23T22:35:22.560Z,39.03
2018-11-23T22:37:51.280Z,38.83
2018-11-23T22:40:20.832Z,32.33
2018-11-23T22:42:53.872Z,31.03
2018-11-23T22:45:22.751Z,37.10
2018-11-23T22:47:51.568Z,30.10
2018-11-23T22:50:21.454Z,33.60
2018-11-23T22:52:50.208Z,28.87
2018-11-23T22:55:19.557Z,30.87
2018-11-23T22:57:48.276Z,44.40
2018-11-23T23:00:26.439Z,36.63
2018-11-23T23:02:55.449Z,41.87
2018-11-23T23:05:24.663Z,35.73
2018-11-23T23:07:53.624Z,34.97
2018-11-23T23:10:22.494Z,36.60
2018-11-23T23:12:51.017Z,39.57
2018-11-23T23:15:19.803Z,38.93
2018-11-23T23:17:48.514Z,40.40
2018-11-23T23:20:19.465Z,39.53
2018-11-23T23:22:48.178Z,48.13
2018-11-23T23:25:16.775Z,39.73
2018-11-23T23:27:45.312Z,45.90
2018-11-23T23:30:16.163Z,54.33
2018-11-23T23:32:45.323Z,35.27
2018-11-23T23:35:15.097Z,36.03
2018-11-23T23:37:43.736Z,43.77
2018-11-23T23:40:16.531Z,35.43
2018-11-23T23:42:45.899Z,38.13
2018-11-23T23:45:17.398Z,36.53
2018-11-23T23:47:46.035Z,36.13
2018-11-23T23:50:20.407Z,32.10
2018-11-23T23:52:49.710Z,44.53
2018-11-23T23:55:18.251Z,43.30
2018-11-23T23:57:47.547Z,38.03
